LEAL/ALC METAR and TAF weather

Enter ICAO airport designator
Station Type Date Time Source
LEAL METAR 2021/08/04 20:00 UTC NOAA

LEAL 042000Z 06006KT 040V100 CAVOK 26/23 Q1013 NOSIG


Station Type Date Time Source
LEAL Decoded METAR 2021/08/04 20:00 UTC NOAA

Alicante / El Altet, Spain (LEAL) 38-17N 000-33W 31M
Aug 04, 2021 - 04:00 PM EDT / 2021.08.04 2000 UTC
Wind: from the ENE (060 degrees) at 7 MPH (6 KT) (direction variable):0
Visibility: greater than 7 mile(s):0
Temperature: 78 F (26 C)
Dew Point: 73 F (23 C)
Relative Humidity: 83%
Pressure (altimeter): 29.91 in. Hg (1013 hPa)
ob: LEAL 042000Z 06006KT 040V100 CAVOK 26/23 Q1013 NOSIG
cycle: 20

Station Type Date Time Source
LEAL TAF 2021/08/04 18:27 UTC NOAA

TAF TAF LEAL 041700Z 0418/0518 18012KT 9999 FEW014 TX30/0512Z TN22/0506Z
BECMG 0418/0420 05009KT
TEMPO 0500/0506 BKN010
TEMPO 0503/0508 VRB04KT
BECMG 0508/0510 11010KT

Example: see airport list